sensor_id;sensor_type;location;lat;lon;timestamp;P1;durP1;ratioP1;P2;durP2;ratioP2
22786;SDS011;63134;52.020;4.714;2023-12-28T00:00:21;8.80;;;3.97;;
22786;SDS011;63134;52.020;4.714;2023-12-28T00:03:07;6.82;;;3.20;;
22786;SDS011;63134;52.020;4.714;2023-12-28T00:05:53;8.13;;;3.17;;
22786;SDS011;63134;52.020;4.714;2023-12-28T00:08:39;6.22;;;3.15;;
22786;SDS011;63134;52.020;4.714;2023-12-28T00:11:26;8.35;;;3.25;;
22786;SDS011;63134;52.020;4.714;2023-12-28T00:14:12;5.60;;;2.80;;
22786;SDS011;63134;52.020;4.714;2023-12-28T00:16:59;6.72;;;3.67;;
22786;SDS011;63134;52.020;4.714;2023-12-28T00:19:44;7.70;;;3.78;;
22786;SDS011;63134;52.020;4.714;2023-12-28T00:22:30;5.80;;;2.70;;
22786;SDS011;63134;52.020;4.714;2023-12-28T00:25:16;8.32;;;3.00;;
22786;SDS011;63134;52.020;4.714;2023-12-28T00:28:01;11.20;;;3.03;;
22786;SDS011;63134;52.020;4.714;2023-12-28T00:30:48;6.85;;;3.33;;
22786;SDS011;63134;52.020;4.714;2023-12-28T00:33:33;7.05;;;2.95;;
22786;SDS011;63134;52.020;4.714;2023-12-28T00:36:19;9.05;;;3.10;;
22786;SDS011;63134;52.020;4.714;2023-12-28T00:39:05;9.85;;;3.15;;
22786;SDS011;63134;52.020;4.714;2023-12-28T00:41:51;10.27;;;3.15;;
22786;SDS011;63134;52.020;4.714;2023-12-28T00:44:37;10.90;;;3.30;;
22786;SDS011;63134;52.020;4.714;2023-12-28T00:47:22;11.23;;;3.38;;
22786;SDS011;63134;52.020;4.714;2023-12-28T00:50:08;9.45;;;3.00;;
22786;SDS011;63134;52.020;4.714;2023-12-28T00:52:59;9.13;;;2.58;;
22786;SDS011;63134;52.020;4.714;2023-12-28T00:55:45;6.35;;;2.47;;
22786;SDS011;63134;52.020;4.714;2023-12-28T00:58:30;6.63;;;3.00;;
22786;SDS011;63134;52.020;4.714;2023-12-28T01:01:16;6.05;;;2.85;;
22786;SDS011;63134;52.020;4.714;2023-12-28T01:04:01;10.77;;;3.25;;
22786;SDS011;63134;52.020;4.714;2023-12-28T01:06:59;8.82;;;2.85;;
22786;SDS011;63134;52.020;4.714;2023-12-28T01:09:47;9.38;;;3.03;;
22786;SDS011;63134;52.020;4.714;2023-12-28T01:12:33;9.27;;;2.80;;
22786;SDS011;63134;52.020;4.714;2023-12-28T01:15:19;10.63;;;3.00;;
22786;SDS011;63134;52.020;4.714;2023-12-28T01:18:05;7.00;;;2.83;;
22786;SDS011;63134;52.020;4.714;2023-12-28T01:20:51;9.98;;;2.80;;
22786;SDS011;63134;52.020;4.714;2023-12-28T01:23:36;11.23;;;3.42;;
22786;SDS011;63134;52.020;4.714;2023-12-28T01:26:22;8.82;;;2.85;;
22786;SDS011;63134;52.020;4.714;2023-12-28T01:29:08;7.13;;;2.78;;
22786;SDS011;63134;52.020;4.714;2023-12-28T01:31:53;9.52;;;3.50;;
22786;SDS011;63134;52.020;4.714;2023-12-28T01:34:39;7.35;;;2.70;;
22786;SDS011;63134;52.020;4.714;2023-12-28T01:37:26;9.00;;;3.55;;
22786;SDS011;63134;52.020;4.714;2023-12-28T01:40:16;4.05;;;2.88;;
22786;SDS011;63134;52.020;4.714;2023-12-28T01:43:02;5.13;;;2.88;;
22786;SDS011;63134;52.020;4.714;2023-12-28T01:45:50;8.15;;;3.40;;
22786;SDS011;63134;52.020;4.714;2023-12-28T01:48:36;6.60;;;2.95;;
22786;SDS011;63134;52.020;4.714;2023-12-28T01:51:21;5.60;;;3.45;;
22786;SDS011;63134;52.020;4.714;2023-12-28T01:54:08;6.93;;;3.25;;
22786;SDS011;63134;52.020;4.714;2023-12-28T01:56:57;6.78;;;3.55;;
22786;SDS011;63134;52.020;4.714;2023-12-28T01:59:44;10.98;;;3.50;;
22786;SDS011;63134;52.020;4.714;2023-12-28T02:02:30;7.60;;;3.25;;
22786;SDS011;63134;52.020;4.714;2023-12-28T02:05:17;10.57;;;3.30;;
22786;SDS011;63134;52.020;4.714;2023-12-28T02:08:03;9.15;;;3.15;;
22786;SDS011;63134;52.020;4.714;2023-12-28T02:10:50;9.15;;;3.30;;
22786;SDS011;63134;52.020;4.714;2023-12-28T02:13:36;11.43;;;3.28;;
22786;SDS011;63134;52.020;4.714;2023-12-28T02:16:26;8.93;;;3.30;;
22786;SDS011;63134;52.020;4.714;2023-12-28T02:19:25;6.78;;;3.10;;
22786;SDS011;63134;52.020;4.714;2023-12-28T02:22:23;8.32;;;2.83;;
22786;SDS011;63134;52.020;4.714;2023-12-28T02:25:11;7.15;;;3.28;;
22786;SDS011;63134;52.020;4.714;2023-12-28T02:27:57;6.32;;;2.90;;
22786;SDS011;63134;52.020;4.714;2023-12-28T02:30:44;9.27;;;3.38;;
22786;SDS011;63134;52.020;4.714;2023-12-28T02:33:34;12.00;;;3.28;;
22786;SDS011;63134;52.020;4.714;2023-12-28T02:36:27;6.40;;;3.25;;
22786;SDS011;63134;52.020;4.714;2023-12-28T02:39:14;8.57;;;3.30;;
22786;SDS011;63134;52.020;4.714;2023-12-28T02:42:01;7.65;;;3.05;;
22786;SDS011;63134;52.020;4.714;2023-12-28T02:44:47;6.18;;;2.67;;
22786;SDS011;63134;52.020;4.714;2023-12-28T02:47:32;4.47;;;2.67;;
22786;SDS011;63134;52.020;4.714;2023-12-28T02:50:23;8.55;;;3.17;;
22786;SDS011;63134;52.020;4.714;2023-12-28T02:53:10;9.55;;;3.22;;
22786;SDS011;63134;52.020;4.714;2023-12-28T02:55:56;8.55;;;2.65;;
22786;SDS011;63134;52.020;4.714;2023-12-28T02:58:42;10.10;;;3.45;;
22786;SDS011;63134;52.020;4.714;2023-12-28T03:01:28;6.70;;;2.75;;
22786;SDS011;63134;52.020;4.714;2023-12-28T03:04:14;11.02;;;2.95;;
22786;SDS011;63134;52.020;4.714;2023-12-28T03:07:00;10.05;;;2.70;;
22786;SDS011;63134;52.020;4.714;2023-12-28T03:09:46;8.18;;;2.90;;
22786;SDS011;63134;52.020;4.714;2023-12-28T03:12:37;6.68;;;2.70;;
22786;SDS011;63134;52.020;4.714;2023-12-28T03:15:22;9.13;;;3.15;;
22786;SDS011;63134;52.020;4.714;2023-12-28T03:18:08;10.77;;;3.00;;
22786;SDS011;63134;52.020;4.714;2023-12-28T03:20:54;7.00;;;2.58;;
22786;SDS011;63134;52.020;4.714;2023-12-28T03:23:40;10.75;;;2.72;;
22786;SDS011;63134;52.020;4.714;2023-12-28T03:26:25;8.15;;;2.92;;
22786;SDS011;63134;52.020;4.714;2023-12-28T03:29:11;8.20;;;3.10;;
22786;SDS011;63134;52.020;4.714;2023-12-28T03:31:56;10.98;;;2.58;;
22786;SDS011;63134;52.020;4.714;2023-12-28T03:34:42;7.80;;;2.80;;
22786;SDS011;63134;52.020;4.714;2023-12-28T03:37:28;12.23;;;3.30;;
22786;SDS011;63134;52.020;4.714;2023-12-28T03:40:14;10.20;;;3.10;;
22786;SDS011;63134;52.020;4.714;2023-12-28T03:43:03;8.10;;;2.78;;
22786;SDS011;63134;52.020;4.714;2023-12-28T03:45:49;9.77;;;3.25;;
22786;SDS011;63134;52.020;4.714;2023-12-28T03:48:35;8.60;;;3.03;;
22786;SDS011;63134;52.020;4.714;2023-12-28T03:51:21;11.63;;;3.08;;
22786;SDS011;63134;52.020;4.714;2023-12-28T03:54:11;10.50;;;2.88;;
22786;SDS011;63134;52.020;4.714;2023-12-28T03:56:57;13.80;;;3.47;;
22786;SDS011;63134;52.020;4.714;2023-12-28T03:59:43;6.60;;;2.47;;
22786;SDS011;63134;52.020;4.714;2023-12-28T04:02:30;17.65;;;4.05;;
22786;SDS011;63134;52.020;4.714;2023-12-28T04:05:17;11.00;;;3.97;;
22786;SDS011;63134;52.020;4.714;2023-12-28T04:08:02;14.13;;;3.47;;
22786;SDS011;63134;52.020;4.714;2023-12-28T04:10:48;13.50;;;3.70;;
22786;SDS011;63134;52.020;4.714;2023-12-28T04:13:34;9.93;;;3.17;;
22786;SDS011;63134;52.020;4.714;2023-12-28T04:16:20;9.55;;;3.00;;
22786;SDS011;63134;52.020;4.714;2023-12-28T04:19:06;12.18;;;3.28;;
22786;SDS011;63134;52.020;4.714;2023-12-28T04:21:51;14.23;;;3.45;;
22786;SDS011;63134;52.020;4.714;2023-12-28T04:24:38;16.42;;;3.95;;
22786;SDS011;63134;52.020;4.714;2023-12-28T04:27:24;9.63;;;2.88;;
22786;SDS011;63134;52.020;4.714;2023-12-28T04:30:13;15.20;;;3.50;;
22786;SDS011;63134;52.020;4.714;2023-12-28T04:33:00;9.93;;;3.10;;
22786;SDS011;63134;52.020;4.714;2023-12-28T04:35:46;11.32;;;3.40;;
22786;SDS011;63134;52.020;4.714;2023-12-28T04:38:34;16.58;;;3.92;;
22786;SDS011;63134;52.020;4.714;2023-12-28T04:41:20;12.93;;;2.97;;
22786;SDS011;63134;52.020;4.714;2023-12-28T04:44:06;14.02;;;3.33;;
22786;SDS011;63134;52.020;4.714;2023-12-28T04:46:51;10.32;;;2.97;;
22786;SDS011;63134;52.020;4.714;2023-12-28T04:49:37;16.45;;;4.55;;
22786;SDS011;63134;52.020;4.714;2023-12-28T04:52:24;16.25;;;3.20;;
22786;SDS011;63134;52.020;4.714;2023-12-28T04:55:12;14.93;;;3.58;;
22786;SDS011;63134;52.020;4.714;2023-12-28T04:57:58;14.32;;;4.07;;
22786;SDS011;63134;52.020;4.714;2023-12-28T05:00:44;14.52;;;3.70;;
22786;SDS011;63134;52.020;4.714;2023-12-28T05:03:30;12.93;;;2.63;;
22786;SDS011;63134;52.020;4.714;2023-12-28T05:06:16;15.95;;;3.10;;
22786;SDS011;63134;52.020;4.714;2023-12-28T05:09:03;15.45;;;3.40;;
22786;SDS011;63134;52.020;4.714;2023-12-28T05:11:49;20.85;;;3.85;;
22786;SDS011;63134;52.020;4.714;2023-12-28T05:14:34;11.80;;;3.13;;
22786;SDS011;63134;52.020;4.714;2023-12-28T05:17:20;17.60;;;3.40;;
22786;SDS011;63134;52.020;4.714;2023-12-28T05:20:06;14.02;;;3.40;;
22786;SDS011;63134;52.020;4.714;2023-12-28T05:22:52;12.65;;;3.22;;
22786;SDS011;63134;52.020;4.714;2023-12-28T05:25:37;15.77;;;3.33;;
22786;SDS011;63134;52.020;4.714;2023-12-28T05:28:23;19.50;;;4.57;;
22786;SDS011;63134;52.020;4.714;2023-12-28T05:31:11;14.57;;;3.83;;
22786;SDS011;63134;52.020;4.714;2023-12-28T05:33:58;19.05;;;3.70;;
22786;SDS011;63134;52.020;4.714;2023-12-28T05:36:45;18.40;;;4.20;;
22786;SDS011;63134;52.020;4.714;2023-12-28T05:39:31;11.32;;;3.03;;
22786;SDS011;63134;52.020;4.714;2023-12-28T05:42:20;19.30;;;3.78;;
22786;SDS011;63134;52.020;4.714;2023-12-28T05:45:06;11.98;;;2.95;;
22786;SDS011;63134;52.020;4.714;2023-12-28T05:47:51;14.07;;;3.42;;
22786;SDS011;63134;52.020;4.714;2023-12-28T05:50:37;24.60;;;4.97;;
22786;SDS011;63134;52.020;4.714;2023-12-28T05:53:22;15.75;;;3.50;;
22786;SDS011;63134;52.020;4.714;2023-12-28T05:56:08;20.40;;;3.60;;
22786;SDS011;63134;52.020;4.714;2023-12-28T05:58:53;12.07;;;3.55;;
22786;SDS011;63134;52.020;4.714;2023-12-28T06:01:42;18.13;;;3.47;;
22786;SDS011;63134;52.020;4.714;2023-12-28T06:04:29;15.57;;;3.65;;
22786;SDS011;63134;52.020;4.714;2023-12-28T06:07:15;20.10;;;4.28;;
22786;SDS011;63134;52.020;4.714;2023-12-28T06:10:00;18.30;;;3.95;;
22786;SDS011;63134;52.020;4.714;2023-12-28T06:12:46;21.50;;;4.70;;
22786;SDS011;63134;52.020;4.714;2023-12-28T06:15:31;18.75;;;4.15;;
22786;SDS011;63134;52.020;4.714;2023-12-28T06:18:17;15.57;;;4.13;;
22786;SDS011;63134;52.020;4.714;2023-12-28T06:21:04;17.20;;;4.03;;
22786;SDS011;63134;52.020;4.714;2023-12-28T06:23:51;18.00;;;4.50;;
22786;SDS011;63134;52.020;4.714;2023-12-28T06:26:40;17.88;;;4.63;;
22786;SDS011;63134;52.020;4.714;2023-12-28T06:29:28;21.30;;;4.47;;
22786;SDS011;63134;52.020;4.714;2023-12-28T06:32:14;28.85;;;4.22;;
22786;SDS011;63134;52.020;4.714;2023-12-28T06:34:59;21.88;;;4.78;;
22786;SDS011;63134;52.020;4.714;2023-12-28T06:37:45;22.52;;;3.97;;
22786;SDS011;63134;52.020;4.714;2023-12-28T06:40:30;25.65;;;5.72;;
22786;SDS011;63134;52.020;4.714;2023-12-28T06:43:16;27.10;;;4.95;;
22786;SDS011;63134;52.020;4.714;2023-12-28T06:46:02;15.95;;;4.40;;
22786;SDS011;63134;52.020;4.714;2023-12-28T06:48:47;17.15;;;4.63;;
22786;SDS011;63134;52.020;4.714;2023-12-28T06:51:33;23.58;;;4.72;;
22786;SDS011;63134;52.020;4.714;2023-12-28T06:54:18;18.58;;;3.65;;
22786;SDS011;63134;52.020;4.714;2023-12-28T06:57:04;25.35;;;4.80;;
22786;SDS011;63134;52.020;4.714;2023-12-28T06:59:50;22.48;;;4.88;;
22786;SDS011;63134;52.020;4.714;2023-12-28T07:02:36;16.98;;;4.22;;
22786;SDS011;63134;52.020;4.714;2023-12-28T07:05:23;25.00;;;4.93;;
22786;SDS011;63134;52.020;4.714;2023-12-28T07:08:09;24.73;;;5.32;;
22786;SDS011;63134;52.020;4.714;2023-12-28T07:10:54;17.95;;;4.65;;
22786;SDS011;63134;52.020;4.714;2023-12-28T07:13:40;21.00;;;4.63;;
22786;SDS011;63134;52.020;4.714;2023-12-28T07:16:26;18.55;;;4.15;;
22786;SDS011;63134;52.020;4.714;2023-12-28T07:19:11;24.92;;;4.70;;
22786;SDS011;63134;52.020;4.714;2023-12-28T07:21:57;19.83;;;4.75;;
22786;SDS011;63134;52.020;4.714;2023-12-28T07:24:43;23.30;;;4.15;;
22786;SDS011;63134;52.020;4.714;2023-12-28T07:27:30;24.63;;;4.32;;
22786;SDS011;63134;52.020;4.714;2023-12-28T07:30:17;23.48;;;4.97;;
22786;SDS011;63134;52.020;4.714;2023-12-28T07:33:03;17.45;;;4.00;;
22786;SDS011;63134;52.020;4.714;2023-12-28T07:35:49;18.95;;;4.85;;
22786;SDS011;63134;52.020;4.714;2023-12-28T07:38:39;23.60;;;5.30;;
22786;SDS011;63134;52.020;4.714;2023-12-28T07:41:26;21.02;;;5.05;;
22786;SDS011;63134;52.020;4.714;2023-12-28T07:44:11;19.15;;;3.95;;
22786;SDS011;63134;52.020;4.714;2023-12-28T07:46:57;16.40;;;3.78;;
22786;SDS011;63134;52.020;4.714;2023-12-28T07:49:45;26.00;;;4.70;;
22786;SDS011;63134;52.020;4.714;2023-12-28T07:52:31;19.15;;;4.25;;
22786;SDS011;63134;52.020;4.714;2023-12-28T07:55:17;23.25;;;5.07;;
22786;SDS011;63134;52.020;4.714;2023-12-28T07:58:02;18.40;;;3.90;;
22786;SDS011;63134;52.020;4.714;2023-12-28T08:00:49;16.92;;;4.40;;
22786;SDS011;63134;52.020;4.714;2023-12-28T08:03:35;26.10;;;4.88;;
22786;SDS011;63134;52.020;4.714;2023-12-28T08:06:23;18.10;;;4.10;;
22786;SDS011;63134;52.020;4.714;2023-12-28T08:09:08;20.60;;;5.20;;
22786;SDS011;63134;52.020;4.714;2023-12-28T08:11:55;25.15;;;4.68;;
22786;SDS011;63134;52.020;4.714;2023-12-28T08:14:40;19.63;;;3.95;;
22786;SDS011;63134;52.020;4.714;2023-12-28T08:17:26;18.85;;;4.40;;
22786;SDS011;63134;52.020;4.714;2023-12-28T08:20:13;21.15;;;3.65;;
22786;SDS011;63134;52.020;4.714;2023-12-28T08:22:58;18.98;;;4.65;;
22786;SDS011;63134;52.020;4.714;2023-12-28T08:26:01;21.48;;;4.88;;
22786;SDS011;63134;52.020;4.714;2023-12-28T08:28:51;20.98;;;4.65;;
22786;SDS011;63134;52.020;4.714;2023-12-28T08:31:36;17.42;;;4.72;;
22786;SDS011;63134;52.020;4.714;2023-12-28T08:34:23;17.90;;;3.83;;
22786;SDS011;63134;52.020;4.714;2023-12-28T08:37:09;19.02;;;5.13;;
22786;SDS011;63134;52.020;4.714;2023-12-28T08:39:58;17.58;;;3.33;;
22786;SDS011;63134;52.020;4.714;2023-12-28T08:42:44;18.48;;;4.30;;
22786;SDS011;63134;52.020;4.714;2023-12-28T08:45:30;16.25;;;4.22;;
22786;SDS011;63134;52.020;4.714;2023-12-28T08:48:15;25.75;;;5.35;;
22786;SDS011;63134;52.020;4.714;2023-12-28T08:51:01;11.57;;;3.95;;
22786;SDS011;63134;52.020;4.714;2023-12-28T08:53:47;19.02;;;4.28;;
22786;SDS011;63134;52.020;4.714;2023-12-28T08:56:33;26.35;;;4.32;;
22786;SDS011;63134;52.020;4.714;2023-12-28T08:59:19;15.32;;;4.25;;
22786;SDS011;63134;52.020;4.714;2023-12-28T09:02:04;18.70;;;3.97;;
22786;SDS011;63134;52.020;4.714;2023-12-28T09:04:50;25.98;;;5.47;;
22786;SDS011;63134;52.020;4.714;2023-12-28T09:07:35;17.30;;;4.63;;
22786;SDS011;63134;52.020;4.714;2023-12-28T09:10:28;21.83;;;4.78;;
22786;SDS011;63134;52.020;4.714;2023-12-28T09:13:18;19.00;;;4.68;;
22786;SDS011;63134;52.020;4.714;2023-12-28T09:16:05;16.90;;;4.18;;
22786;SDS011;63134;52.020;4.714;2023-12-28T09:18:52;21.88;;;4.80;;
22786;SDS011;63134;52.020;4.714;2023-12-28T09:21:38;23.20;;;4.40;;
22786;SDS011;63134;52.020;4.714;2023-12-28T09:24:23;21.05;;;4.93;;
22786;SDS011;63134;52.020;4.714;2023-12-28T09:27:09;18.08;;;4.53;;
22786;SDS011;63134;52.020;4.714;2023-12-28T09:29:54;25.60;;;4.93;;
22786;SDS011;63134;52.020;4.714;2023-12-28T09:32:40;17.92;;;4.75;;
22786;SDS011;63134;52.020;4.714;2023-12-28T09:35:25;25.48;;;4.60;;
22786;SDS011;63134;52.020;4.714;2023-12-28T09:38:11;22.75;;;4.93;;
22786;SDS011;63134;52.020;4.714;2023-12-28T09:40:58;19.65;;;4.78;;
22786;SDS011;63134;52.020;4.714;2023-12-28T09:44:11;23.23;;;5.32;;
22786;SDS011;63134;52.020;4.714;2023-12-28T09:46:57;22.20;;;5.45;;
22786;SDS011;63134;52.020;4.714;2023-12-28T09:49:43;16.73;;;4.47;;
22786;SDS011;63134;52.020;4.714;2023-12-28T09:52:29;23.23;;;5.32;;
22786;SDS011;63134;52.020;4.714;2023-12-28T09:55:15;20.92;;;4.90;;
22786;SDS011;63134;52.020;4.714;2023-12-28T09:58:00;17.58;;;4.25;;
22786;SDS011;63134;52.020;4.714;2023-12-28T10:00:50;24.35;;;5.05;;
22786;SDS011;63134;52.020;4.714;2023-12-28T10:03:36;20.92;;;4.82;;
22786;SDS011;63134;52.020;4.714;2023-12-28T10:06:22;21.88;;;4.53;;
22786;SDS011;63134;52.020;4.714;2023-12-28T10:09:08;21.17;;;5.38;;
22786;SDS011;63134;52.020;4.714;2023-12-28T10:11:54;20.45;;;5.28;;
22786;SDS011;63134;52.020;4.714;2023-12-28T10:14:39;20.23;;;4.88;;
22786;SDS011;63134;52.020;4.714;2023-12-28T10:17:24;19.50;;;4.88;;
22786;SDS011;63134;52.020;4.714;2023-12-28T10:20:10;20.13;;;4.95;;
22786;SDS011;63134;52.020;4.714;2023-12-28T10:22:56;17.15;;;4.00;;
22786;SDS011;63134;52.020;4.714;2023-12-28T10:25:43;20.77;;;4.82;;
22786;SDS011;63134;52.020;4.714;2023-12-28T10:28:30;20.63;;;5.45;;
22786;SDS011;63134;52.020;4.714;2023-12-28T10:31:19;20.50;;;4.55;;
22786;SDS011;63134;52.020;4.714;2023-12-28T10:34:06;18.17;;;4.28;;
22786;SDS011;63134;52.020;4.714;2023-12-28T10:36:53;19.55;;;4.70;;
22786;SDS011;63134;52.020;4.714;2023-12-28T10:39:41;16.75;;;4.13;;
22786;SDS011;63134;52.020;4.714;2023-12-28T10:42:37;20.05;;;4.63;;
22786;SDS011;63134;52.020;4.714;2023-12-28T10:45:30;19.65;;;4.95;;
22786;SDS011;63134;52.020;4.714;2023-12-28T10:48:21;23.48;;;4.82;;
22786;SDS011;63134;52.020;4.714;2023-12-28T10:51:22;24.13;;;5.57;;
22786;SDS011;63134;52.020;4.714;2023-12-28T11:00:13;20.95;;;4.75;;
22786;SDS011;63134;52.020;4.714;2023-12-28T11:03:02;21.70;;;5.22;;
22786;SDS011;63134;52.020;4.714;2023-12-28T11:05:51;18.20;;;4.68;;
22786;SDS011;63134;52.020;4.714;2023-12-28T11:08:38;17.42;;;4.68;;
22786;SDS011;63134;52.020;4.714;2023-12-28T11:11:27;22.65;;;5.38;;
22786;SDS011;63134;52.020;4.714;2023-12-28T11:14:15;17.65;;;4.60;;
22786;SDS011;63134;52.020;4.714;2023-12-28T11:17:02;24.55;;;4.80;;
22786;SDS011;63134;52.020;4.714;2023-12-28T11:19:49;20.15;;;4.30;;
22786;SDS011;63134;52.020;4.714;2023-12-28T11:22:36;22.95;;;4.97;;
22786;SDS011;63134;52.020;4.714;2023-12-28T11:25:23;22.42;;;4.80;;
22786;SDS011;63134;52.020;4.714;2023-12-28T11:28:12;17.67;;;5.00;;
22786;SDS011;63134;52.020;4.714;2023-12-28T11:30:59;19.90;;;4.35;;
22786;SDS011;63134;52.020;4.714;2023-12-28T11:33:47;25.52;;;5.60;;
22786;SDS011;63134;52.020;4.714;2023-12-28T11:36:39;26.10;;;5.50;;
22786;SDS011;63134;52.020;4.714;2023-12-28T11:39:30;25.23;;;6.57;;
22786;SDS011;63134;52.020;4.714;2023-12-28T11:42:19;21.80;;;5.00;;
22786;SDS011;63134;52.020;4.714;2023-12-28T11:45:06;18.33;;;3.95;;
22786;SDS011;63134;52.020;4.714;2023-12-28T11:48:01;23.30;;;5.45;;
22786;SDS011;63134;52.020;4.714;2023-12-28T11:50:48;24.55;;;5.00;;
22786;SDS011;63134;52.020;4.714;2023-12-28T11:53:34;20.30;;;4.80;;
22786;SDS011;63134;52.020;4.714;2023-12-28T11:56:20;15.95;;;4.50;;
22786;SDS011;63134;52.020;4.714;2023-12-28T11:59:05;23.10;;;5.05;;
22786;SDS011;63134;52.020;4.714;2023-12-28T12:01:52;16.20;;;4.57;;
22786;SDS011;63134;52.020;4.714;2023-12-28T12:04:38;25.98;;;4.55;;
22786;SDS011;63134;52.020;4.714;2023-12-28T12:07:24;22.60;;;5.68;;
22786;SDS011;63134;52.020;4.714;2023-12-28T12:10:14;23.42;;;5.72;;
22786;SDS011;63134;52.020;4.714;2023-12-28T12:13:00;27.30;;;5.72;;
22786;SDS011;63134;52.020;4.714;2023-12-28T12:15:50;22.63;;;5.22;;
22786;SDS011;63134;52.020;4.714;2023-12-28T12:18:41;25.77;;;5.65;;
22786;SDS011;63134;52.020;4.714;2023-12-28T12:21:27;18.63;;;4.50;;
22786;SDS011;63134;52.020;4.714;2023-12-28T12:24:13;25.60;;;4.80;;
22786;SDS011;63134;52.020;4.714;2023-12-28T12:26:58;22.13;;;4.95;;
22786;SDS011;63134;52.020;4.714;2023-12-28T12:29:47;26.63;;;5.07;;
22786;SDS011;63134;52.020;4.714;2023-12-28T12:32:33;27.23;;;6.38;;
22786;SDS011;63134;52.020;4.714;2023-12-28T12:35:22;20.48;;;4.65;;
22786;SDS011;63134;52.020;4.714;2023-12-28T12:38:08;23.33;;;5.53;;
22786;SDS011;63134;52.020;4.714;2023-12-28T12:40:53;20.33;;;4.50;;
22786;SDS011;63134;52.020;4.714;2023-12-28T12:43:39;21.02;;;4.22;;
22786;SDS011;63134;52.020;4.714;2023-12-28T12:46:26;21.70;;;4.80;;
22786;SDS011;63134;52.020;4.714;2023-12-28T12:49:12;21.30;;;5.28;;
22786;SDS011;63134;52.020;4.714;2023-12-28T12:51:57;29.42;;;5.65;;
22786;SDS011;63134;52.020;4.714;2023-12-28T12:54:55;22.05;;;6.10;;
22786;SDS011;63134;52.020;4.714;2023-12-28T12:57:41;22.05;;;6.10;;
22786;SDS011;63134;52.020;4.714;2023-12-28T13:00:28;19.98;;;4.05;;
22786;SDS011;63134;52.020;4.714;2023-12-28T13:03:13;16.83;;;4.18;;
22786;SDS011;63134;52.020;4.714;2023-12-28T13:05:59;20.20;;;4.68;;
22786;SDS011;63134;52.020;4.714;2023-12-28T13:08:44;15.65;;;4.30;;
22786;SDS011;63134;52.020;4.714;2023-12-28T13:11:30;33.83;;;5.03;;
22786;SDS011;63134;52.020;4.714;2023-12-28T13:14:15;23.25;;;5.78;;
22786;SDS011;63134;52.020;4.714;2023-12-28T13:17:01;22.95;;;5.10;;
22786;SDS011;63134;52.020;4.714;2023-12-28T13:19:46;21.17;;;4.18;;
22786;SDS011;63134;52.020;4.714;2023-12-28T13:22:32;22.02;;;5.20;;
22786;SDS011;63134;52.020;4.714;2023-12-28T13:25:19;20.33;;;5.32;;
22786;SDS011;63134;52.020;4.714;2023-12-28T13:28:04;20.98;;;5.20;;
22786;SDS011;63134;52.020;4.714;2023-12-28T13:30:50;19.98;;;4.10;;
22786;SDS011;63134;52.020;4.714;2023-12-28T13:33:36;20.75;;;5.30;;
22786;SDS011;63134;52.020;4.714;2023-12-28T13:36:22;23.90;;;5.57;;
22786;SDS011;63134;52.020;4.714;2023-12-28T13:39:07;28.58;;;6.30;;
22786;SDS011;63134;52.020;4.714;2023-12-28T13:41:56;23.45;;;5.15;;
22786;SDS011;63134;52.020;4.714;2023-12-28T13:44:41;21.90;;;5.88;;
22786;SDS011;63134;52.020;4.714;2023-12-28T13:47:28;19.08;;;4.63;;
22786;SDS011;63134;52.020;4.714;2023-12-28T13:50:13;24.13;;;5.43;;
22786;SDS011;63134;52.020;4.714;2023-12-28T13:52:59;24.85;;;4.90;;
22786;SDS011;63134;52.020;4.714;2023-12-28T13:55:45;18.05;;;4.70;;
22786;SDS011;63134;52.020;4.714;2023-12-28T13:58:31;19.95;;;4.38;;
22786;SDS011;63134;52.020;4.714;2023-12-28T14:01:16;28.73;;;5.50;;
22786;SDS011;63134;52.020;4.714;2023-12-28T14:04:02;27.20;;;5.15;;
22786;SDS011;63134;52.020;4.714;2023-12-28T14:06:48;22.73;;;4.75;;
22786;SDS011;63134;52.020;4.714;2023-12-28T14:09:34;32.15;;;5.57;;
22786;SDS011;63134;52.020;4.714;2023-12-28T14:12:21;18.55;;;5.05;;
22786;SDS011;63134;52.020;4.714;2023-12-28T14:15:06;24.52;;;5.03;;
22786;SDS011;63134;52.020;4.714;2023-12-28T14:17:52;26.48;;;4.85;;
22786;SDS011;63134;52.020;4.714;2023-12-28T14:20:38;36.67;;;6.63;;
22786;SDS011;63134;52.020;4.714;2023-12-28T14:23:24;24.38;;;5.35;;
22786;SDS011;63134;52.020;4.714;2023-12-28T14:26:13;19.05;;;5.10;;
22786;SDS011;63134;52.020;4.714;2023-12-28T14:29:00;23.15;;;5.15;;
22786;SDS011;63134;52.020;4.714;2023-12-28T14:31:50;26.83;;;5.53;;
22786;SDS011;63134;52.020;4.714;2023-12-28T14:34:36;24.95;;;5.22;;
22786;SDS011;63134;52.020;4.714;2023-12-28T14:37:22;27.52;;;6.07;;
22786;SDS011;63134;52.020;4.714;2023-12-28T14:40:08;23.88;;;5.00;;
22786;SDS011;63134;52.020;4.714;2023-12-28T14:42:56;28.02;;;6.22;;
22786;SDS011;63134;52.020;4.714;2023-12-28T14:45:42;26.42;;;4.55;;
22786;SDS011;63134;52.020;4.714;2023-12-28T14:48:27;26.15;;;4.95;;
22786;SDS011;63134;52.020;4.714;2023-12-28T14:51:13;20.73;;;4.75;;
22786;SDS011;63134;52.020;4.714;2023-12-28T14:53:59;26.30;;;5.93;;
22786;SDS011;63134;52.020;4.714;2023-12-28T14:56:44;24.58;;;4.75;;
22786;SDS011;63134;52.020;4.714;2023-12-28T14:59:39;28.85;;;5.60;;
22786;SDS011;63134;52.020;4.714;2023-12-28T15:02:24;18.35;;;5.22;;
22786;SDS011;63134;52.020;4.714;2023-12-28T15:05:10;22.77;;;4.43;;
22786;SDS011;63134;52.020;4.714;2023-12-28T15:07:58;24.40;;;5.22;;
22786;SDS011;63134;52.020;4.714;2023-12-28T15:10:44;25.27;;;5.18;;
22786;SDS011;63134;52.020;4.714;2023-12-28T15:13:33;27.02;;;5.30;;
22786;SDS011;63134;52.020;4.714;2023-12-28T15:16:19;26.05;;;5.40;;
22786;SDS011;63134;52.020;4.714;2023-12-28T15:19:05;22.30;;;5.20;;
22786;SDS011;63134;52.020;4.714;2023-12-28T15:21:52;27.77;;;4.97;;
22786;SDS011;63134;52.020;4.714;2023-12-28T15:24:41;22.83;;;5.03;;
22786;SDS011;63134;52.020;4.714;2023-12-28T15:27:26;21.58;;;4.93;;
22786;SDS011;63134;52.020;4.714;2023-12-28T15:30:12;19.40;;;5.20;;
22786;SDS011;63134;52.020;4.714;2023-12-28T15:32:58;23.17;;;4.95;;
22786;SDS011;63134;52.020;4.714;2023-12-28T15:35:44;21.20;;;5.15;;
22786;SDS011;63134;52.020;4.714;2023-12-28T15:38:30;16.88;;;4.40;;
22786;SDS011;63134;52.020;4.714;2023-12-28T15:41:15;22.13;;;4.95;;
22786;SDS011;63134;52.020;4.714;2023-12-28T15:44:01;26.33;;;5.18;;
22786;SDS011;63134;52.020;4.714;2023-12-28T15:46:47;22.65;;;4.90;;
22786;SDS011;63134;52.020;4.714;2023-12-28T15:49:32;21.58;;;5.00;;
22786;SDS011;63134;52.020;4.714;2023-12-28T15:52:18;21.20;;;5.00;;
22786;SDS011;63134;52.020;4.714;2023-12-28T15:55:03;21.23;;;4.68;;
22786;SDS011;63134;52.020;4.714;2023-12-28T15:57:49;23.60;;;5.30;;
22786;SDS011;63134;52.020;4.714;2023-12-28T16:00:35;14.75;;;4.97;;
22786;SDS011;63134;52.020;4.714;2023-12-28T16:03:21;25.50;;;5.03;;
22786;SDS011;63134;52.020;4.714;2023-12-28T16:06:09;17.67;;;4.13;;
22786;SDS011;63134;52.020;4.714;2023-12-28T16:08:56;15.57;;;3.97;;
22786;SDS011;63134;52.020;4.714;2023-12-28T16:11:41;19.48;;;4.82;;
22786;SDS011;63134;52.020;4.714;2023-12-28T16:14:27;23.42;;;4.78;;
22786;SDS011;63134;52.020;4.714;2023-12-28T16:17:13;19.20;;;4.65;;
22786;SDS011;63134;52.020;4.714;2023-12-28T16:19:59;22.77;;;5.07;;
22786;SDS011;63134;52.020;4.714;2023-12-28T16:22:45;18.80;;;4.80;;
22786;SDS011;63134;52.020;4.714;2023-12-28T16:25:31;21.13;;;5.10;;
22786;SDS011;63134;52.020;4.714;2023-12-28T16:28:16;23.83;;;4.75;;
22786;SDS011;63134;52.020;4.714;2023-12-28T16:31:02;19.23;;;5.07;;
22786;SDS011;63134;52.020;4.714;2023-12-28T16:33:48;23.98;;;5.60;;
22786;SDS011;63134;52.020;4.714;2023-12-28T16:36:34;15.30;;;3.75;;
22786;SDS011;63134;52.020;4.714;2023-12-28T16:39:19;19.52;;;5.05;;